sensor_id;sensor_type;location;lat;lon;timestamp;temperature;humidity
13806;DHT22;6974;53.606;9.872;2023-04-01T00:00:46;12.00;99.90
13806;DHT22;6974;53.606;9.872;2023-04-01T00:03:17;12.00;99.90
13806;DHT22;6974;53.606;9.872;2023-04-01T00:05:45;12.00;99.90
13806;DHT22;6974;53.606;9.872;2023-04-01T00:08:11;12.00;99.90
13806;DHT22;6974;53.606;9.872;2023-04-01T00:10:38;12.00;99.90
13806;DHT22;6974;53.606;9.872;2023-04-01T00:13:06;12.00;99.90
13806;DHT22;6974;53.606;9.872;2023-04-01T00:15:33;12.00;99.90
13806;DHT22;6974;53.606;9.872;2023-04-01T00:18:01;12.00;99.90
13806;DHT22;6974;53.606;9.872;2023-04-01T00:20:31;11.90;99.90
13806;DHT22;6974;53.606;9.872;2023-04-01T00:23:07;11.90;99.90
13806;DHT22;6974;53.606;9.872;2023-04-01T00:25:38;11.90;99.90
13806;DHT22;6974;53.606;9.872;2023-04-01T00:28:36;12.00;99.90
13806;DHT22;6974;53.606;9.872;2023-04-01T00:31:07;11.90;99.90
13806;DHT22;6974;53.606;9.872;2023-04-01T00:37:16;12.00;99.90
13806;DHT22;6974;53.606;9.872;2023-04-01T00:39:44;11.90;99.90
13806;DHT22;6974;53.606;9.872;2023-04-01T00:42:29;11.90;99.90
13806;DHT22;6974;53.606;9.872;2023-04-01T00:45:29;12.00;99.90
13806;DHT22;6974;53.606;9.872;2023-04-01T00:51:11;11.90;99.90
13806;DHT22;6974;53.606;9.872;2023-04-01T00:57:23;11.90;99.90
13806;DHT22;6974;53.606;9.872;2023-04-01T01:00:09;11.90;99.90
13806;DHT22;6974;53.606;9.872;2023-04-01T01:02:47;11.90;99.90
13806;DHT22;6974;53.606;9.872;2023-04-01T01:06:10;11.90;99.90
13806;DHT22;6974;53.606;9.872;2023-04-01T01:11:56;11.90;99.90
13806;DHT22;6974;53.606;9.872;2023-04-01T01:14:35;11.90;99.90
13806;DHT22;6974;53.606;9.872;2023-04-01T01:17:23;11.90;99.90
13806;DHT22;6974;53.606;9.872;2023-04-01T01:26:48;11.80;99.90
13806;DHT22;6974;53.606;9.872;2023-04-01T01:36:13;11.80;99.90
13806;DHT22;6974;53.606;9.872;2023-04-01T01:38:41;11.80;99.90
13806;DHT22;6974;53.606;9.872;2023-04-01T01:41:09;11.80;99.90
13806;DHT22;6974;53.606;9.872;2023-04-01T01:43:41;11.80;99.90
13806;DHT22;6974;53.606;9.872;2023-04-01T01:46:11;11.80;99.90
13806;DHT22;6974;53.606;9.872;2023-04-01T01:48:41;11.80;99.90
13806;DHT22;6974;53.606;9.872;2023-04-01T01:51:12;11.80;99.90
13806;DHT22;6974;53.606;9.872;2023-04-01T01:53:39;11.80;99.90
13806;DHT22;6974;53.606;9.872;2023-04-01T01:56:06;11.80;99.90
13806;DHT22;6974;53.606;9.872;2023-04-01T01:58:36;11.80;99.90
13806;DHT22;6974;53.606;9.872;2023-04-01T02:01:09;11.80;99.90
13806;DHT22;6974;53.606;9.872;2023-04-01T02:03:38;11.70;99.90
13806;DHT22;6974;53.606;9.872;2023-04-01T02:06:08;11.80;99.90
13806;DHT22;6974;53.606;9.872;2023-04-01T02:08:40;11.70;99.90
13806;DHT22;6974;53.606;9.872;2023-04-01T02:11:11;11.80;99.90
13806;DHT22;6974;53.606;9.872;2023-04-01T02:13:42;11.80;99.90
13806;DHT22;6974;53.606;9.872;2023-04-01T02:16:14;11.80;99.90
13806;DHT22;6974;53.606;9.872;2023-04-01T02:18:44;11.80;99.90
13806;DHT22;6974;53.606;9.872;2023-04-01T02:21:13;11.80;99.90
13806;DHT22;6974;53.606;9.872;2023-04-01T02:23:44;11.80;99.90
13806;DHT22;6974;53.606;9.872;2023-04-01T02:26:13;11.80;99.90
13806;DHT22;6974;53.606;9.872;2023-04-01T02:28:42;11.80;99.90
13806;DHT22;6974;53.606;9.872;2023-04-01T02:31:11;11.80;99.90
13806;DHT22;6974;53.606;9.872;2023-04-01T02:33:39;11.80;99.90
13806;DHT22;6974;53.606;9.872;2023-04-01T02:36:11;11.70;99.90
13806;DHT22;6974;53.606;9.872;2023-04-01T02:38:39;11.80;99.90
13806;DHT22;6974;53.606;9.872;2023-04-01T02:41:08;11.80;99.90
13806;DHT22;6974;53.606;9.872;2023-04-01T02:43:35;11.70;99.90
13806;DHT22;6974;53.606;9.872;2023-04-01T02:46:02;11.70;99.90
13806;DHT22;6974;53.606;9.872;2023-04-01T02:48:29;11.80;99.90
13806;DHT22;6974;53.606;9.872;2023-04-01T02:50:56;11.70;99.90
13806;DHT22;6974;53.606;9.872;2023-04-01T02:53:23;11.70;99.90
13806;DHT22;6974;53.606;9.872;2023-04-01T02:55:50;11.70;99.90
13806;DHT22;6974;53.606;9.872;2023-04-01T02:58:19;11.70;99.90
13806;DHT22;6974;53.606;9.872;2023-04-01T03:00:46;11.70;99.90
13806;DHT22;6974;53.606;9.872;2023-04-01T03:03:13;11.70;99.90
13806;DHT22;6974;53.606;9.872;2023-04-01T03:05:41;11.80;99.90
13806;DHT22;6974;53.606;9.872;2023-04-01T03:08:08;11.80;99.90
13806;DHT22;6974;53.606;9.872;2023-04-01T03:10:36;11.80;99.90
13806;DHT22;6974;53.606;9.872;2023-04-01T03:13:03;11.80;99.90
13806;DHT22;6974;53.606;9.872;2023-04-01T03:15:31;11.70;99.90
13806;DHT22;6974;53.606;9.872;2023-04-01T03:17:59;11.70;99.90
13806;DHT22;6974;53.606;9.872;2023-04-01T03:20:26;11.70;99.90
13806;DHT22;6974;53.606;9.872;2023-04-01T03:22:53;11.70;99.90
13806;DHT22;6974;53.606;9.872;2023-04-01T03:25:20;11.70;99.90
13806;DHT22;6974;53.606;9.872;2023-04-01T03:27:48;11.60;99.90
13806;DHT22;6974;53.606;9.872;2023-04-01T03:30:15;11.70;99.90
13806;DHT22;6974;53.606;9.872;2023-04-01T03:32:45;11.70;99.90
13806;DHT22;6974;53.606;9.872;2023-04-01T03:35:12;11.70;99.90
13806;DHT22;6974;53.606;9.872;2023-04-01T03:37:41;11.70;99.90
13806;DHT22;6974;53.606;9.872;2023-04-01T03:40:10;11.60;99.90
13806;DHT22;6974;53.606;9.872;2023-04-01T03:42:38;11.70;99.90
13806;DHT22;6974;53.606;9.872;2023-04-01T03:45:06;11.70;99.90
13806;DHT22;6974;53.606;9.872;2023-04-01T03:47:34;11.60;99.90
13806;DHT22;6974;53.606;9.872;2023-04-01T03:50:05;11.60;99.90
13806;DHT22;6974;53.606;9.872;2023-04-01T03:52:33;11.70;99.90
13806;DHT22;6974;53.606;9.872;2023-04-01T03:55:00;11.70;99.90
13806;DHT22;6974;53.606;9.872;2023-04-01T03:57:28;11.60;99.90
13806;DHT22;6974;53.606;9.872;2023-04-01T03:59:57;11.60;99.90
13806;DHT22;6974;53.606;9.872;2023-04-01T04:02:24;11.60;99.90
13806;DHT22;6974;53.606;9.872;2023-04-01T04:04:51;11.60;99.90
13806;DHT22;6974;53.606;9.872;2023-04-01T04:07:20;11.60;99.90
13806;DHT22;6974;53.606;9.872;2023-04-01T04:09:47;11.60;99.90
13806;DHT22;6974;53.606;9.872;2023-04-01T04:12:14;11.60;99.90
13806;DHT22;6974;53.606;9.872;2023-04-01T04:14:41;11.60;99.90
13806;DHT22;6974;53.606;9.872;2023-04-01T04:17:10;11.60;99.90
13806;DHT22;6974;53.606;9.872;2023-04-01T04:19:41;11.60;99.90
13806;DHT22;6974;53.606;9.872;2023-04-01T04:22:08;11.70;99.90
13806;DHT22;6974;53.606;9.872;2023-04-01T04:24:37;11.70;99.90
13806;DHT22;6974;53.606;9.872;2023-04-01T04:27:05;11.60;99.90
13806;DHT22;6974;53.606;9.872;2023-04-01T04:29:32;11.60;99.90
13806;DHT22;6974;53.606;9.872;2023-04-01T04:31:59;11.70;99.90
13806;DHT22;6974;53.606;9.872;2023-04-01T04:34:27;11.70;99.90
13806;DHT22;6974;53.606;9.872;2023-04-01T04:36:55;11.60;99.90
13806;DHT22;6974;53.606;9.872;2023-04-01T04:39:22;11.60;99.90
13806;DHT22;6974;53.606;9.872;2023-04-01T04:41:50;11.60;99.90
13806;DHT22;6974;53.606;9.872;2023-04-01T04:44:18;11.60;99.90
13806;DHT22;6974;53.606;9.872;2023-04-01T04:46:45;11.60;99.90
13806;DHT22;6974;53.606;9.872;2023-04-01T04:49:12;11.60;99.90
13806;DHT22;6974;53.606;9.872;2023-04-01T04:51:40;11.50;99.90
13806;DHT22;6974;53.606;9.872;2023-04-01T04:54:07;11.50;99.90
13806;DHT22;6974;53.606;9.872;2023-04-01T04:56:34;11.50;99.90
13806;DHT22;6974;53.606;9.872;2023-04-01T04:59:04;11.50;99.90
13806;DHT22;6974;53.606;9.872;2023-04-01T05:01:31;11.50;99.90
13806;DHT22;6974;53.606;9.872;2023-04-01T05:04:00;11.50;99.90
13806;DHT22;6974;53.606;9.872;2023-04-01T05:06:27;11.50;99.90
13806;DHT22;6974;53.606;9.872;2023-04-01T05:08:56;11.50;99.90
13806;DHT22;6974;53.606;9.872;2023-04-01T05:11:23;11.50;99.90
13806;DHT22;6974;53.606;9.872;2023-04-01T05:13:53;11.40;99.90
13806;DHT22;6974;53.606;9.872;2023-04-01T05:16:22;11.40;99.90
13806;DHT22;6974;53.606;9.872;2023-04-01T05:18:49;11.40;99.90
13806;DHT22;6974;53.606;9.872;2023-04-01T05:21:16;11.20;99.90
13806;DHT22;6974;53.606;9.872;2023-04-01T05:23:44;11.20;99.90
13806;DHT22;6974;53.606;9.872;2023-04-01T05:26:13;11.20;99.90
13806;DHT22;6974;53.606;9.872;2023-04-01T05:28:41;11.10;99.90
13806;DHT22;6974;53.606;9.872;2023-04-01T05:31:08;11.00;99.90
13806;DHT22;6974;53.606;9.872;2023-04-01T05:33:37;11.00;99.90
13806;DHT22;6974;53.606;9.872;2023-04-01T05:36:08;10.90;99.90
13806;DHT22;6974;53.606;9.872;2023-04-01T05:38:36;10.90;99.90
13806;DHT22;6974;53.606;9.872;2023-04-01T05:41:03;10.80;99.90
13806;DHT22;6974;53.606;9.872;2023-04-01T05:43:30;10.80;99.90
13806;DHT22;6974;53.606;9.872;2023-04-01T05:45:58;10.70;99.90
13806;DHT22;6974;53.606;9.872;2023-04-01T05:48:25;10.60;99.90
13806;DHT22;6974;53.606;9.872;2023-04-01T05:50:54;10.60;99.90
13806;DHT22;6974;53.606;9.872;2023-04-01T05:53:21;10.50;99.90
13806;DHT22;6974;53.606;9.872;2023-04-01T05:55:48;10.40;99.90
13806;DHT22;6974;53.606;9.872;2023-04-01T05:58:16;10.40;99.90
13806;DHT22;6974;53.606;9.872;2023-04-01T06:00:43;10.40;99.90
13806;DHT22;6974;53.606;9.872;2023-04-01T06:03:10;10.40;99.90
13806;DHT22;6974;53.606;9.872;2023-04-01T06:05:40;10.40;99.90
13806;DHT22;6974;53.606;9.872;2023-04-01T06:08:13;10.40;99.90
13806;DHT22;6974;53.606;9.872;2023-04-01T06:10:51;10.40;99.90
13806;DHT22;6974;53.606;9.872;2023-04-01T06:13:30;10.30;99.90
13806;DHT22;6974;53.606;9.872;2023-04-01T06:16:07;10.30;99.90
13806;DHT22;6974;53.606;9.872;2023-04-01T06:18:51;10.30;99.90
13806;DHT22;6974;53.606;9.872;2023-04-01T06:21:58;10.30;99.90
13806;DHT22;6974;53.606;9.872;2023-04-01T06:24:43;10.30;99.90
13806;DHT22;6974;53.606;9.872;2023-04-01T06:27:21;10.20;99.90
13806;DHT22;6974;53.606;9.872;2023-04-01T06:29:59;10.20;99.90
13806;DHT22;6974;53.606;9.872;2023-04-01T06:32:50;10.20;99.90
13806;DHT22;6974;53.606;9.872;2023-04-01T06:35:33;10.10;99.90
13806;DHT22;6974;53.606;9.872;2023-04-01T06:38:20;10.10;99.90
13806;DHT22;6974;53.606;9.872;2023-04-01T06:44:16;9.90;99.90
13806;DHT22;6974;53.606;9.872;2023-04-01T06:46:55;9.90;99.90
13806;DHT22;6974;53.606;9.872;2023-04-01T06:49:41;9.80;99.90
13806;DHT22;6974;53.606;9.872;2023-04-01T06:52:19;9.80;99.90
13806;DHT22;6974;53.606;9.872;2023-04-01T06:54:53;9.80;99.90
13806;DHT22;6974;53.606;9.872;2023-04-01T06:57:29;9.80;99.90
13806;DHT22;6974;53.606;9.872;2023-04-01T07:00:01;9.70;99.90
13806;DHT22;6974;53.606;9.872;2023-04-01T07:02:36;9.80;99.90
13806;DHT22;6974;53.606;9.872;2023-04-01T07:05:04;9.60;99.90
13806;DHT22;6974;53.606;9.872;2023-04-01T07:07:36;9.70;99.90
13806;DHT22;6974;53.606;9.872;2023-04-01T07:10:10;9.60;99.90
13806;DHT22;6974;53.606;9.872;2023-04-01T07:12:44;9.60;99.90
13806;DHT22;6974;53.606;9.872;2023-04-01T07:15:18;9.50;99.90
13806;DHT22;6974;53.606;9.872;2023-04-01T07:17:48;9.50;99.90
13806;DHT22;6974;53.606;9.872;2023-04-01T07:20:22;9.50;99.90
13806;DHT22;6974;53.606;9.872;2023-04-01T07:22:53;9.50;99.90
13806;DHT22;6974;53.606;9.872;2023-04-01T07:25:24;9.50;99.90
13806;DHT22;6974;53.606;9.872;2023-04-01T07:27:53;9.60;99.90
13806;DHT22;6974;53.606;9.872;2023-04-01T07:30:30;9.50;99.90
13806;DHT22;6974;53.606;9.872;2023-04-01T07:33:05;9.50;99.90
13806;DHT22;6974;53.606;9.872;2023-04-01T07:35:38;9.50;99.90
13806;DHT22;6974;53.606;9.872;2023-04-01T07:38:16;9.50;99.90
13806;DHT22;6974;53.606;9.872;2023-04-01T07:40:48;9.50;99.90
13806;DHT22;6974;53.606;9.872;2023-04-01T07:43:26;9.40;99.90
13806;DHT22;6974;53.606;9.872;2023-04-01T07:46:06;9.40;99.90
13806;DHT22;6974;53.606;9.872;2023-04-01T07:48:42;9.40;99.90
13806;DHT22;6974;53.606;9.872;2023-04-01T07:51:18;9.30;99.90
13806;DHT22;6974;53.606;9.872;2023-04-01T07:53:49;9.20;99.90
13806;DHT22;6974;53.606;9.872;2023-04-01T07:56:22;9.20;99.90
13806;DHT22;6974;53.606;9.872;2023-04-01T07:58:58;9.20;99.90
13806;DHT22;6974;53.606;9.872;2023-04-01T08:01:33;9.20;99.90
13806;DHT22;6974;53.606;9.872;2023-04-01T08:04:15;9.20;99.90
13806;DHT22;6974;53.606;9.872;2023-04-01T08:06:47;9.10;99.90
13806;DHT22;6974;53.606;9.872;2023-04-01T08:09:23;9.10;99.90
13806;DHT22;6974;53.606;9.872;2023-04-01T08:12:02;9.10;99.90
13806;DHT22;6974;53.606;9.872;2023-04-01T08:14:36;9.10;99.90
13806;DHT22;6974;53.606;9.872;2023-04-01T08:17:12;9.10;99.90
13806;DHT22;6974;53.606;9.872;2023-04-01T08:19:55;9.10;99.90
13806;DHT22;6974;53.606;9.872;2023-04-01T08:22:27;9.10;99.90
13806;DHT22;6974;53.606;9.872;2023-04-01T08:24:56;9.10;99.90
13806;DHT22;6974;53.606;9.872;2023-04-01T08:27:33;9.00;99.90
13806;DHT22;6974;53.606;9.872;2023-04-01T08:30:06;8.90;99.90
13806;DHT22;6974;53.606;9.872;2023-04-01T08:32:46;8.90;99.90
13806;DHT22;6974;53.606;9.872;2023-04-01T08:35:17;8.90;99.90
13806;DHT22;6974;53.606;9.872;2023-04-01T08:37:47;8.90;99.90
13806;DHT22;6974;53.606;9.872;2023-04-01T08:40:48;9.00;99.90
13806;DHT22;6974;53.606;9.872;2023-04-01T08:43:28;8.90;99.90
13806;DHT22;6974;53.606;9.872;2023-04-01T08:46:26;8.90;99.90
13806;DHT22;6974;53.606;9.872;2023-04-01T08:49:06;8.90;99.90
13806;DHT22;6974;53.606;9.872;2023-04-01T08:51:57;8.90;99.90
13806;DHT22;6974;53.606;9.872;2023-04-01T08:57:43;8.90;99.90
13806;DHT22;6974;53.606;9.872;2023-04-01T09:00:21;8.90;99.90
13806;DHT22;6974;53.606;9.872;2023-04-01T09:03:03;8.90;99.90
13806;DHT22;6974;53.606;9.872;2023-04-01T09:05:47;8.90;99.90
13806;DHT22;6974;53.606;9.872;2023-04-01T09:08:37;8.90;99.90
13806;DHT22;6974;53.606;9.872;2023-04-01T09:11:20;8.90;99.90
13806;DHT22;6974;53.606;9.872;2023-04-01T09:14:04;8.90;99.90
13806;DHT22;6974;53.606;9.872;2023-04-01T09:16:57;8.80;99.90
13806;DHT22;6974;53.606;9.872;2023-04-01T09:19:42;8.80;99.90
13806;DHT22;6974;53.606;9.872;2023-04-01T09:22:22;8.90;99.90
13806;DHT22;6974;53.606;9.872;2023-04-01T09:25:13;9.00;99.90
13806;DHT22;6974;53.606;9.872;2023-04-01T09:27:45;9.00;99.90
13806;DHT22;6974;53.606;9.872;2023-04-01T09:34:01;9.00;99.90
13806;DHT22;6974;53.606;9.872;2023-04-01T09:36:47;9.00;99.90
13806;DHT22;6974;53.606;9.872;2023-04-01T09:39:35;9.10;99.90
13806;DHT22;6974;53.606;9.872;2023-04-01T09:42:29;9.00;99.90
13806;DHT22;6974;53.606;9.872;2023-04-01T09:45:01;9.10;99.90
13806;DHT22;6974;53.606;9.872;2023-04-01T09:47:47;9.10;99.90
13806;DHT22;6974;53.606;9.872;2023-04-01T09:50:31;9.10;99.90
13806;DHT22;6974;53.606;9.872;2023-04-01T09:53:11;9.10;99.90
13806;DHT22;6974;53.606;9.872;2023-04-01T10:05:11;9.10;99.90
13806;DHT22;6974;53.606;9.872;2023-04-01T10:08:09;9.10;99.90
13806;DHT22;6974;53.606;9.872;2023-04-01T10:10:59;9.10;99.90
13806;DHT22;6974;53.606;9.872;2023-04-01T10:14:13;9.10;99.90
13806;DHT22;6974;53.606;9.872;2023-04-01T10:20:17;9.20;99.90
13806;DHT22;6974;53.606;9.872;2023-04-01T10:23:06;9.10;99.90
13806;DHT22;6974;53.606;9.872;2023-04-01T10:29:07;9.10;99.90
13806;DHT22;6974;53.606;9.872;2023-04-01T10:32:22;9.20;99.90
13806;DHT22;6974;53.606;9.872;2023-04-01T10:35:23;9.30;99.90
13806;DHT22;6974;53.606;9.872;2023-04-01T10:41:38;9.40;99.90
13806;DHT22;6974;53.606;9.872;2023-04-01T10:44:51;9.40;99.90
13806;DHT22;6974;53.606;9.872;2023-04-01T10:47:50;9.40;99.90
13806;DHT22;6974;53.606;9.872;2023-04-01T10:53:41;9.40;99.90
13806;DHT22;6974;53.606;9.872;2023-04-01T10:56:34;9.40;99.90
13806;DHT22;6974;53.606;9.872;2023-04-01T11:05:47;9.40;99.90
13806;DHT22;6974;53.606;9.872;2023-04-01T11:08:46;9.30;99.90
13806;DHT22;6974;53.606;9.872;2023-04-01T11:15:06;9.40;99.90
13806;DHT22;6974;53.606;9.872;2023-04-01T11:17:59;9.30;99.90
13806;DHT22;6974;53.606;9.872;2023-04-01T11:26:43;9.20;99.90
13806;DHT22;6974;53.606;9.872;2023-04-01T11:29:45;9.20;99.90
13806;DHT22;6974;53.606;9.872;2023-04-01T11:32:24;9.10;99.90
13806;DHT22;6974;53.606;9.872;2023-04-01T11:35:19;9.00;99.90
13806;DHT22;6974;53.606;9.872;2023-04-01T11:37:54;9.10;99.90
13806;DHT22;6974;53.606;9.872;2023-04-01T11:40:29;9.10;99.90
13806;DHT22;6974;53.606;9.872;2023-04-01T11:43:08;9.10;99.90
13806;DHT22;6974;53.606;9.872;2023-04-01T11:45:41;9.10;99.90
13806;DHT22;6974;53.606;9.872;2023-04-01T11:48:32;9.10;99.90
13806;DHT22;6974;53.606;9.872;2023-04-01T11:54:09;9.20;99.90
13806;DHT22;6974;53.606;9.872;2023-04-01T11:56:53;9.10;99.90
13806;DHT22;6974;53.606;9.872;2023-04-01T11:59:50;9.10;99.90
13806;DHT22;6974;53.606;9.872;2023-04-01T12:02:28;9.20;99.90
13806;DHT22;6974;53.606;9.872;2023-04-01T12:05:17;9.20;99.90
13806;DHT22;6974;53.606;9.872;2023-04-01T12:08:01;9.20;99.90
13806;DHT22;6974;53.606;9.872;2023-04-01T12:10:37;9.10;99.90
13806;DHT22;6974;53.606;9.872;2023-04-01T12:13:13;9.00;99.90
13806;DHT22;6974;53.606;9.872;2023-04-01T12:15:54;8.90;99.90
13806;DHT22;6974;53.606;9.872;2023-04-01T12:18:30;8.90;99.90
13806;DHT22;6974;53.606;9.872;2023-04-01T12:21:02;8.90;99.90
13806;DHT22;6974;53.606;9.872;2023-04-01T12:23:46;8.90;99.90
13806;DHT22;6974;53.606;9.872;2023-04-01T12:26:47;8.90;99.90
13806;DHT22;6974;53.606;9.872;2023-04-01T12:29:37;8.90;99.90
13806;DHT22;6974;53.606;9.872;2023-04-01T12:32:17;8.90;99.90
13806;DHT22;6974;53.606;9.872;2023-04-01T12:34:58;8.80;99.90
13806;DHT22;6974;53.606;9.872;2023-04-01T12:37:35;8.80;99.90
13806;DHT22;6974;53.606;9.872;2023-04-01T12:40:23;8.90;99.90
13806;DHT22;6974;53.606;9.872;2023-04-01T12:43:02;8.90;99.90
13806;DHT22;6974;53.606;9.872;2023-04-01T12:45:32;8.80;99.90
13806;DHT22;6974;53.606;9.872;2023-04-01T12:48:23;8.90;99.90
13806;DHT22;6974;53.606;9.872;2023-04-01T12:57:01;8.90;99.90
13806;DHT22;6974;53.606;9.872;2023-04-01T12:59:44;8.80;99.90
13806;DHT22;6974;53.606;9.872;2023-04-01T13:02:27;8.90;99.90
13806;DHT22;6974;53.606;9.872;2023-04-01T13:05:13;8.90;99.90
13806;DHT22;6974;53.606;9.872;2023-04-01T13:08:00;8.80;99.90
13806;DHT22;6974;53.606;9.872;2023-04-01T13:10:43;8.70;99.90
13806;DHT22;6974;53.606;9.872;2023-04-01T13:13:40;8.60;99.90
13806;DHT22;6974;53.606;9.872;2023-04-01T13:16:13;8.60;99.90
13806;DHT22;6974;53.606;9.872;2023-04-01T13:18:54;8.60;99.90
13806;DHT22;6974;53.606;9.872;2023-04-01T13:21:30;8.60;99.90
13806;DHT22;6974;53.606;9.872;2023-04-01T13:24:06;8.60;99.90
13806;DHT22;6974;53.606;9.872;2023-04-01T13:26:41;8.60;99.90
13806;DHT22;6974;53.606;9.872;2023-04-01T13:29:14;8.60;99.90
13806;DHT22;6974;53.606;9.872;2023-04-01T13:31:53;8.60;99.90
13806;DHT22;6974;53.606;9.872;2023-04-01T13:34:35;8.60;99.90
13806;DHT22;6974;53.606;9.872;2023-04-01T13:37:21;8.60;99.90
13806;DHT22;6974;53.606;9.872;2023-04-01T13:42:49;8.60;99.90
13806;DHT22;6974;53.606;9.872;2023-04-01T13:45:24;8.60;99.90
13806;DHT22;6974;53.606;9.872;2023-04-01T13:48:21;8.60;99.90
13806;DHT22;6974;53.606;9.872;2023-04-01T13:51:20;8.60;99.90
13806;DHT22;6974;53.606;9.872;2023-04-01T13:56:57;8.50;99.90
13806;DHT22;6974;53.606;9.872;2023-04-01T13:59:37;8.50;99.90
13806;DHT22;6974;53.606;9.872;2023-04-01T14:02:24;8.60;99.90
13806;DHT22;6974;53.606;9.872;2023-04-01T14:05:17;8.50;99.90
13806;DHT22;6974;53.606;9.872;2023-04-01T14:07:58;8.50;99.90
13806;DHT22;6974;53.606;9.872;2023-04-01T14:10:34;8.50;99.90
13806;DHT22;6974;53.606;9.872;2023-04-01T14:13:09;8.60;99.90
13806;DHT22;6974;53.606;9.872;2023-04-01T14:15:59;8.60;99.90
13806;DHT22;6974;53.606;9.872;2023-04-01T14:18:47;8.60;99.90
13806;DHT22;6974;53.606;9.872;2023-04-01T14:21:36;8.40;99.90
13806;DHT22;6974;53.606;9.872;2023-04-01T14:24:24;8.40;99.90
13806;DHT22;6974;53.606;9.872;2023-04-01T14:30:42;8.30;99.90
13806;DHT22;6974;53.606;9.872;2023-04-01T14:33:23;8.30;99.90
13806;DHT22;6974;53.606;9.872;2023-04-01T14:36:18;8.30;99.90
13806;DHT22;6974;53.606;9.872;2023-04-01T14:38:58;8.30;99.90
13806;DHT22;6974;53.606;9.872;2023-04-01T14:41:36;8.30;99.90
13806;DHT22;6974;53.606;9.872;2023-04-01T14:44:23;8.30;99.90
13806;DHT22;6974;53.606;9.872;2023-04-01T14:50:12;8.30;99.90
13806;DHT22;6974;53.606;9.872;2023-04-01T14:52:43;8.30;99.90
13806;DHT22;6974;53.606;9.872;2023-04-01T14:55:25;8.20;99.90
13806;DHT22;6974;53.606;9.872;2023-04-01T14:58:09;8.30;99.90
13806;DHT22;6974;53.606;9.872;2023-04-01T15:00:50;8.30;99.90
13806;DHT22;6974;53.606;9.872;2023-04-01T15:03:26;8.20;99.90
13806;DHT22;6974;53.606;9.872;2023-04-01T15:06:01;8.10;99.90
13806;DHT22;6974;53.606;9.872;2023-04-01T15:08:45;8.10;99.90
13806;DHT22;6974;53.606;9.872;2023-04-01T15:11:27;8.10;99.90
13806;DHT22;6974;53.606;9.872;2023-04-01T15:14:14;8.00;99.90
13806;DHT22;6974;53.606;9.872;2023-04-01T15:16:51;8.00;99.90
13806;DHT22;6974;53.606;9.872;2023-04-01T15:19:31;8.00;99.90
13806;DHT22;6974;53.606;9.872;2023-04-01T15:22:13;8.00;99.90
13806;DHT22;6974;53.606;9.872;2023-04-01T15:24:47;8.00;99.90
13806;DHT22;6974;53.606;9.872;2023-04-01T15:27:25;8.00;99.90
13806;DHT22;6974;53.606;9.872;2023-04-01T15:33:20;8.00;99.90
13806;DHT22;6974;53.606;9.872;2023-04-01T15:36:00;8.00;99.90
13806;DHT22;6974;53.606;9.872;2023-04-01T15:38:33;8.00;99.90
13806;DHT22;6974;53.606;9.872;2023-04-01T15:41:10;8.00;99.90
13806;DHT22;6974;53.606;9.872;2023-04-01T15:43:41;8.00;99.90
13806;DHT22;6974;53.606;9.872;2023-04-01T15:46:26;8.00;99.90
13806;DHT22;6974;53.606;9.872;2023-04-01T15:49:03;8.00;99.90
13806;DHT22;6974;53.606;9.872;2023-04-01T15:51:56;7.90;99.90
13806;DHT22;6974;53.606;9.872;2023-04-01T15:57:35;7.90;99.90
13806;DHT22;6974;53.606;9.872;2023-04-01T16:00:27;7.90;99.90
13806;DHT22;6974;53.606;9.872;2023-04-01T16:03:17;7.90;99.90
13806;DHT22;6974;53.606;9.872;2023-04-01T16:06:09;7.80;99.90
13806;DHT22;6974;53.606;9.872;2023-04-01T16:08:51;7.70;99.90
13806;DHT22;6974;53.606;9.872;2023-04-01T16:11:27;7.70;99.90
13806;DHT22;6974;53.606;9.872;2023-04-01T16:14:04;7.60;99.90
13806;DHT22;6974;53.606;9.872;2023-04-01T16:16:43;7.60;99.90
13806;DHT22;6974;53.606;9.872;2023-04-01T16:19:26;7.70;99.90
13806;DHT22;6974;53.606;9.872;2023-04-01T16:22:01;7.60;99.90
13806;DHT22;6974;53.606;9.872;2023-04-01T16:24:34;7.60;99.90
13806;DHT22;6974;53.606;9.872;2023-04-01T16:27:05;7.60;99.90
13806;DHT22;6974;53.606;9.872;2023-04-01T16:29:40;7.60;99.90
13806;DHT22;6974;53.606;9.872;2023-04-01T16:32:19;7.60;99.90
13806;DHT22;6974;53.606;9.872;2023-04-01T16:34:56;7.50;99.90
13806;DHT22;6974;53.606;9.872;2023-04-01T16:37:32;7.50;99.90
13806;DHT22;6974;53.606;9.872;2023-04-01T16:40:12;7.50;99.90
13806;DHT22;6974;53.606;9.872;2023-04-01T16:42:47;7.40;99.90
13806;DHT22;6974;53.606;9.872;2023-04-01T16:45:23;7.40;99.90
13806;DHT22;6974;53.606;9.872;2023-04-01T16:47:55;7.40;99.90
13806;DHT22;6974;53.606;9.872;2023-04-01T16:50:24;7.40;99.90
13806;DHT22;6974;53.606;9.872;2023-04-01T16:52:59;7.40;99.90
13806;DHT22;6974;53.606;9.872;2023-04-01T16:55:43;7.50;99.90
13806;DHT22;6974;53.606;9.872;2023-04-01T16:58:20;7.50;99.90
13806;DHT22;6974;53.606;9.872;2023-04-01T17:00:50;7.50;99.90
13806;DHT22;6974;53.606;9.872;2023-04-01T17:03:25;7.50;99.90
13806;DHT22;6974;53.606;9.872;2023-04-01T17:06:02;7.40;99.90
13806;DHT22;6974;53.606;9.872;2023-04-01T17:08:51;7.40;99.90
13806;DHT22;6974;53.606;9.872;2023-04-01T17:11:23;7.40;99.90
13806;DHT22;6974;53.606;9.872;2023-04-01T17:13:58;7.30;99.90
13806;DHT22;6974;53.606;9.872;2023-04-01T17:19:45;7.20;99.90
13806;DHT22;6974;53.606;9.872;2023-04-01T17:22:25;7.20;99.90
13806;DHT22;6974;53.606;9.872;2023-04-01T17:25:05;7.30;99.90
13806;DHT22;6974;53.606;9.872;2023-04-01T17:27:42;7.30;99.90
13806;DHT22;6974;53.606;9.872;2023-04-01T17:30:30;7.30;99.90
13806;DHT22;6974;53.606;9.872;2023-04-01T17:33:14;7.20;99.90
13806;DHT22;6974;53.606;9.872;2023-04-01T17:35:50;7.20;99.90
13806;DHT22;6974;53.606;9.872;2023-04-01T17:38:33;7.20;99.90
13806;DHT22;6974;53.606;9.872;2023-04-01T17:41:05;7.20;99.90
13806;DHT22;6974;53.606;9.872;2023-04-01T17:43:42;7.20;99.90
13806;DHT22;6974;53.606;9.872;2023-04-01T17:46:27;7.10;99.90
13806;DHT22;6974;53.606;9.872;2023-04-01T17:49:03;7.10;99.90
13806;DHT22;6974;53.606;9.872;2023-04-01T17:51:35;7.10;99.90
13806;DHT22;6974;53.606;9.872;2023-04-01T17:54:17;7.00;99.90
13806;DHT22;6974;53.606;9.872;2023-04-01T17:56:57;7.00;99.90
13806;DHT22;6974;53.606;9.872;2023-04-01T17:59:35;7.10;99.90
13806;DHT22;6974;53.606;9.872;2023-04-01T18:02:16;7.10;99.90
13806;DHT22;6974;53.606;9.872;2023-04-01T18:05:01;7.10;99.90
13806;DHT22;6974;53.606;9.872;2023-04-01T18:07:46;7.10;99.90
13806;DHT22;6974;53.606;9.872;2023-04-01T18:10:26;7.00;99.90
13806;DHT22;6974;53.606;9.872;2023-04-01T18:13:17;7.00;99.90
13806;DHT22;6974;53.606;9.872;2023-04-01T18:15:55;7.00;99.90
13806;DHT22;6974;53.606;9.872;2023-04-01T18:18:37;7.10;99.90
13806;DHT22;6974;53.606;9.872;2023-04-01T18:21:16;7.00;99.90
13806;DHT22;6974;53.606;9.872;2023-04-01T18:23:51;7.00;99.90
13806;DHT22;6974;53.606;9.872;2023-04-01T18:26:22;7.10;99.90
13806;DHT22;6974;53.606;9.872;2023-04-01T18:28:54;7.10;99.90
13806;DHT22;6974;53.606;9.872;2023-04-01T18:31:25;7.10;99.90
13806;DHT22;6974;53.606;9.872;2023-04-01T18:33:56;7.00;99.90
13806;DHT22;6974;53.606;9.872;2023-04-01T18:36:37;7.10;99.90
13806;DHT22;6974;53.606;9.872;2023-04-01T18:39:11;7.10;99.90
13806;DHT22;6974;53.606;9.872;2023-04-01T18:41:50;7.20;99.90
13806;DHT22;6974;53.606;9.872;2023-04-01T18:44:34;7.00;99.90